Time;durP1;ratioP1;P1;durP2;ratioP2;P2;SDS_P1;SDS_P2;PMS_P1;PMS_P2;Temp;Humidity;BMP_temperature;BMP_pressure;BME280_temperature;BME280_humidity;BME280_pressure;Samples;Min_cycle;Max_cycle;Signal;HPM_P1;HPM_P2
2021/12/30 00:02:16;;;;;;;4.05;1.40;;;;;;;-145.06;24.23;60892.56;4863747;28;20042;-87
2021/12/30 00:04:55;;;;;;;5.53;1.95;;;;;;;-145.06;24.23;60892.56;4868091;28;20041;-87
2021/12/30 00:07:34;;;;;;;5.90;1.67;;;;;;;-145.06;24.23;60892.56;4875690;28;20036;-87
2021/12/30 00:10:13;;;;;;;6.30;1.67;;;;;;;-145.06;24.23;60892.56;4841361;28;20037;-87
2021/12/30 00:12:52;;;;;;;8.75;2.03;;;;;;;-145.06;24.23;60892.56;4855238;28;20045;-88
2021/12/30 00:15:32;;;;;;;6.35;2.17;;;;;;;-145.06;24.23;60892.56;4850250;28;20779;-87
2021/12/30 00:18:11;;;;;;;6.57;1.88;;;;;;;-145.06;24.23;60892.56;4857190;28;20072;-87
2021/12/30 00:20:50;;;;;;;6.80;2.05;;;;;;;-145.06;24.23;60892.56;4841138;28;20033;-86
2021/12/30 00:23:29;;;;;;;4.85;1.15;;;;;;;-145.06;24.23;60892.56;4862409;28;20072;-87
2021/12/30 00:26:09;;;;;;;6.37;1.70;;;;;;;-145.06;24.23;60892.56;4862447;28;20490;-88
2021/12/30 00:28:48;;;;;;;7.32;1.65;;;;;;;-145.06;24.23;60892.56;4869325;28;20284;-87
2021/12/30 00:31:27;;;;;;;6.90;1.43;;;;;;;-145.06;24.23;60892.56;4854554;28;20041;-88
2021/12/30 00:34:06;;;;;;;5.63;1.73;;;;;;;-145.06;24.23;60892.56;4859527;28;20466;-87
2021/12/30 00:36:45;;;;;;;5.13;1.80;;;;;;;-145.06;24.23;60892.56;4846928;28;20029;-87
2021/12/30 00:39:23;;;;;;;7.63;1.90;;;;;;;-145.06;24.23;60892.56;4868114;28;20295;-86
2021/12/30 00:42:02;;;;;;;5.15;1.77;;;;;;;-145.06;24.23;60892.56;4853701;28;20037;-86
2021/12/30 00:44:41;;;;;;;7.57;1.70;;;;;;;-145.06;24.23;60892.56;4857823;28;20032;-88
2021/12/30 00:47:20;;;;;;;6.70;1.95;;;;;;;21.08;24.23;60892.56;4875426;28;20494;-86
2021/12/30 00:50:00;;;;;;;6.03;1.73;;;;;;;-145.06;24.23;60892.56;4840909;28;20033;-88
2021/12/30 00:52:39;;;;;;;6.25;1.92;;;;;;;-145.06;24.23;60892.56;4846650;28;20025;-86
2021/12/30 00:55:19;;;;;;;6.67;1.80;;;;;;;-145.06;24.23;60892.56;4860401;28;20025;-87
2021/12/30 00:57:58;;;;;;;6.15;1.90;;;;;;;-145.06;24.23;60892.56;4851135;28;20029;-87
2021/12/30 01:00:41;;;;;;;4.78;1.60;;;;;;;-145.06;24.23;60892.56;4871340;28;20032;-85
2021/12/30 01:03:20;;;;;;;5.18;1.55;;;;;;;-145.06;24.23;60892.56;4868188;28;20037;-87
2021/12/30 01:05:59;;;;;;;4.72;1.65;;;;;;;-145.06;24.23;60892.56;4868486;28;20021;-87
2021/12/30 01:08:38;;;;;;;4.80;1.40;;;;;;;-145.06;24.23;60892.56;4854104;28;20068;-87
2021/12/30 01:11:20;;;;;;;4.13;1.60;;;;;;;-145.06;24.23;60892.56;4861522;28;20630;-88
2021/12/30 01:14:24;;;;;;;3.97;1.40;;;;;;;-145.06;24.23;60892.56;4855813;28;20041;-87
2021/12/30 01:17:11;;;;;;;2.45;1.10;;;;;;;-145.06;24.23;60892.56;4870271;28;20032;-87
2021/12/30 01:19:51;;;;;;;4.78;1.50;;;;;;;-145.06;24.23;60892.56;4842365;28;20034;-87
2021/12/30 01:22:33;;;;;;;3.92;1.25;;;;;;;-145.06;24.23;60892.56;4856822;28;20103;-88
2021/12/30 01:25:11;;;;;;;3.35;1.17;;;;;;;-145.06;24.23;60892.56;4859370;28;20364;-88
2021/12/30 01:27:50;;;;;;;5.10;1.43;;;;;;;-145.06;24.23;60892.56;4873725;28;20036;-87
2021/12/30 01:30:29;;;;;;;3.63;1.33;;;;;;;-145.06;24.23;60892.56;4859493;28;20029;-87
2021/12/30 01:33:08;;;;;;;4.00;1.30;;;;;;;-145.06;24.23;60892.56;4851287;28;20486;-86
2021/12/30 01:35:48;;;;;;;4.22;1.60;;;;;;;-145.06;24.23;60892.56;4874178;28;20474;-87
2021/12/30 01:38:27;;;;;;;3.83;1.38;;;;;;;-145.06;24.23;60892.56;4867063;28;20036;-87
2021/12/30 01:41:08;;;;;;;4.65;1.27;;;;;;;-145.06;24.23;60892.56;4850530;28;20025;-87
2021/12/30 01:43:48;;;;;;;3.75;1.30;;;;;;;-145.06;24.23;60892.56;4854535;28;20030;-87
2021/12/30 01:46:40;;;;;;;4.43;1.30;;;;;;;-145.06;24.23;60892.56;4843321;28;20060;-87
2021/12/30 01:49:21;;;;;;;2.75;1.00;;;;;;;-145.06;24.23;60892.56;4840106;28;20041;-87
2021/12/30 01:52:01;;;;;;;4.03;1.10;;;;;;;-145.06;24.23;60892.56;4853863;28;20037;-87
2021/12/30 01:54:39;;;;;;;3.35;0.93;;;;;;;-145.06;24.23;60892.56;4858750;28;20037;-87
2021/12/30 01:57:19;;;;;;;3.78;1.20;;;;;;;-145.06;24.23;60892.56;4852755;28;20041;-88
2021/12/30 02:00:00;;;;;;;3.53;1.20;;;;;;;-145.06;24.23;60892.56;4856239;28;20025;-87
2021/12/30 02:02:40;;;;;;;1.92;1.00;;;;;;;-145.06;24.23;60892.56;4857497;28;20473;-86
2021/12/30 02:05:20;;;;;;;;;;;;;;;-145.06;24.23;60892.56;4843625;28;20045;-87
2021/12/30 02:07:59;;;;;;;3.50;1.20;;;;;;;-145.06;24.23;60892.56;4848220;28;19913;-88
2021/12/30 02:10:40;;;;;;;4.13;1.15;;;;;;;-145.06;24.23;60892.56;4852125;28;20033;-88
2021/12/30 02:13:20;;;;;;;1.45;0.73;;;;;;;-145.06;24.23;60892.56;4861489;28;20037;-87
2021/12/30 02:16:02;;;;;;;3.65;1.13;;;;;;;-145.06;24.23;60892.56;4863468;28;20033;-86
2021/12/30 02:18:41;;;;;;;2.50;1.00;;;;;;;-145.06;24.23;60892.56;4853670;28;20041;-86
2021/12/30 02:21:20;;;;;;;2.17;1.05;;;;;;;-145.06;24.23;60892.56;4860020;28;20024;-87
2021/12/30 02:23:59;;;;;;;3.00;0.85;;;;;;;-145.06;24.23;60892.56;4860792;28;20077;-87
2021/12/30 02:26:38;;;;;;;2.25;0.98;;;;;;;-145.06;24.23;60892.56;4862597;28;20426;-87
2021/12/30 02:29:17;;;;;;;1.47;0.70;;;;;;;-145.06;24.23;60892.56;4874804;28;20029;-87
2021/12/30 02:31:56;;;;;;;1.95;0.90;;;;;;;13.51;24.23;60892.56;4874039;28;20435;-87
2021/12/30 02:34:39;;;;;;;2.50;0.88;;;;;;;-145.06;24.23;60892.56;4874255;28;20041;-87
2021/12/30 02:37:19;;;;;;;1.58;0.60;;;;;;;-145.06;24.23;60892.56;4851548;28;20694;-87
2021/12/30 02:39:58;;;;;;;1.55;0.68;;;;;;;-145.06;24.23;60892.56;4869115;28;20029;-88
2021/12/30 02:42:37;;;;;;;1.10;0.60;;;;;;;-145.06;24.23;60892.56;4868911;28;20468;-87
2021/12/30 02:45:17;;;;;;;3.15;0.88;;;;;;;-145.06;24.23;60892.56;4857879;28;20057;-87
2021/12/30 02:47:56;;;;;;;1.03;0.60;;;;;;;-145.06;24.23;60892.56;4870505;28;20044;-88
2021/12/30 02:50:35;;;;;;;0.67;0.53;;;;;;;14.58;24.23;60892.56;4860399;28;20283;-87
2021/12/30 02:53:14;;;;;;;0.55;0.40;;;;;;;-145.06;24.23;60892.56;4848783;28;20411;-88
2021/12/30 02:55:54;;;;;;;0.90;0.63;;;;;;;-145.06;24.23;60892.56;4871050;28;20037;-87
2021/12/30 02:58:33;;;;;;;1.45;0.80;;;;;;;14.58;24.23;60892.56;4873611;28;20057;-87
2021/12/30 03:01:16;;;;;;;1.03;0.70;;;;;;;-145.06;24.23;60892.56;4858366;28;20073;-87
2021/12/30 03:03:57;;;;;;;1.05;0.55;;;;;;;13.58;24.23;60892.56;4868433;28;20140;-88
2021/12/30 03:06:36;;;;;;;0.90;0.60;;;;;;;-145.06;24.23;60892.56;4860224;28;20478;-86
2021/12/30 03:09:15;;;;;;;0.47;0.43;;;;;;;-145.06;24.23;60892.56;4877016;28;20107;-89
2021/12/30 03:11:56;;;;;;;0.67;0.50;;;;;;;-145.06;24.23;60892.56;4860739;28;20108;-87
2021/12/30 03:14:39;;;;;;;0.82;0.50;;;;;;;13.58;24.23;60892.56;4861999;28;20036;-88
2021/12/30 03:17:18;;;;;;;0.40;0.40;;;;;;;-145.06;24.23;60892.56;4859141;28;20646;-88
2021/12/30 03:19:57;;;;;;;0.30;0.30;;;;;;;-145.06;24.23;60892.56;4877074;28;20375;-89
2021/12/30 03:22:39;;;;;;;0.45;0.30;;;;;;;-145.06;24.23;60892.56;4843564;28;20033;-87
2021/12/30 03:25:18;;;;;;;0.63;0.32;;;;;;;-145.06;24.23;60892.56;4856928;28;20041;-88
2021/12/30 03:27:58;;;;;;;0.50;0.30;;;;;;;-145.06;24.23;60892.56;4851649;28;20017;-86
2021/12/30 03:30:37;;;;;;;0.68;0.50;;;;;;;15.88;24.23;60892.56;4876088;28;20112;-87
2021/12/30 03:33:16;;;;;;;0.40;0.20;;;;;;;-145.06;24.23;60892.56;4875383;28;20436;-86
2021/12/30 03:35:59;;;;;;;0.70;0.30;;;;;;;-145.06;24.23;60892.56;4876941;28;20037;-88
2021/12/30 03:38:41;;;;;;;0.90;0.30;;;;;;;-145.06;24.23;60892.56;4866412;28;20101;-88
2021/12/30 03:41:23;;;;;;;0.70;0.30;;;;;;;-145.06;24.23;60892.56;4858366;28;20029;-89
2021/12/30 03:44:02;;;;;;;0.45;0.30;;;;;;;-145.06;24.23;60892.56;4861459;28;20104;-88
2021/12/30 03:46:41;;;;;;;0.30;0.30;;;;;;;-145.06;24.23;60892.56;4861464;28;20028;-88
2021/12/30 03:49:20;;;;;;;0.30;0.30;;;;;;;-145.06;24.23;60892.56;4871098;28;20033;-86
2021/12/30 03:51:59;;;;;;;0.85;0.40;;;;;;;-145.06;24.23;60892.56;4857407;28;20037;-87
2021/12/30 03:54:38;;;;;;;0.30;0.30;;;;;;;-145.06;24.23;60892.56;4871992;28;20041;-88
2021/12/30 03:57:18;;;;;;;0.20;0.20;;;;;;;-145.06;24.23;60892.56;4868749;28;20252;-88
2021/12/30 03:59:57;;;;;;;0.20;0.20;;;;;;;13.93;24.23;60892.56;4852694;28;20025;-87
2021/12/30 04:02:36;;;;;;;0.20;0.20;;;;;;;-145.06;24.23;60892.56;4857463;28;20036;-88
2021/12/30 04:05:15;;;;;;;0.20;0.20;;;;;;;-145.06;24.23;60892.56;4855504;28;20271;-88
2021/12/30 04:07:54;;;;;;;0.37;0.33;;;;;;;13.95;24.23;60892.56;4860100;28;20259;-87
2021/12/30 04:10:34;;;;;;;0.38;0.20;;;;;;;-145.06;24.23;60892.56;4861891;28;20322;-88
2021/12/30 04:13:16;;;;;;;0.20;0.20;;;;;;;-145.06;24.23;60892.56;4864707;28;20021;-88
2021/12/30 04:15:56;;;;;;;0.20;0.20;;;;;;;-145.06;24.23;60892.56;4860393;28;20037;-87
2021/12/30 04:18:35;;;;;;;0.20;0.20;;;;;;;13.99;24.23;60892.56;4861050;28;20144;-87
2021/12/30 04:21:19;;;;;;;0.30;0.30;;;;;;;-145.06;24.23;60892.56;4876045;28;20033;-88
2021/12/30 04:23:58;;;;;;;0.30;0.25;;;;;;;-145.06;24.23;60892.56;4875164;28;20033;-87
2021/12/30 04:26:38;;;;;;;0.22;0.22;;;;;;;-145.06;24.23;60892.56;4875924;28;20029;-87
2021/12/30 04:29:21;;;;;;;0.40;0.40;;;;;;;187.52;24.23;60892.56;4870130;28;20033;-87
2021/12/30 04:32:00;;;;;;;0.90;0.40;;;;;;;-145.06;24.23;60892.56;4862238;28;20375;-87
2021/12/30 04:34:39;;;;;;;0.40;0.30;;;;;;;-145.06;24.23;60892.56;4860037;28;20033;-89
2021/12/30 04:37:18;;;;;;;0.50;0.40;;;;;;;-145.06;24.23;60892.56;4860987;28;20057;-87
2021/12/30 04:39:57;;;;;;;0.30;0.30;;;;;;;-145.06;24.23;60892.56;4860138;28;20104;-88
2021/12/30 04:42:38;;;;;;;0.30;0.30;;;;;;;14.11;24.23;60892.56;4874956;28;20263;-88
2021/12/30 04:45:20;;;;;;;0.65;0.28;;;;;;;14.12;24.23;60892.56;4874417;28;20040;-87
2021/12/30 04:47:59;;;;;;;0.20;0.20;;;;;;;-145.06;24.23;60892.56;4875232;28;20434;-87
2021/12/30 04:50:39;;;;;;;0.10;0.10;;;;;;;-145.06;24.23;60892.56;4859761;28;20033;-88
2021/12/30 04:53:18;;;;;;;0.20;0.20;;;;;;;-145.06;24.23;60892.56;4859754;28;20029;-88
2021/12/30 04:55:57;;;;;;;0.40;0.20;;;;;;;-145.06;24.23;60892.56;4857400;28;20032;-87
2021/12/30 04:58:37;;;;;;;0.20;0.20;;;;;;;-145.06;24.23;60892.56;4848335;28;20037;-88
2021/12/30 05:01:18;;;;;;;0.20;0.20;;;;;;;15.88;24.23;60892.56;4858456;28;20283;-87
2021/12/30 05:03:58;;;;;;;0.25;0.25;;;;;;;-145.06;24.23;60892.56;4871700;28;20553;-87
2021/12/30 05:06:36;;;;;;;0.20;0.20;;;;;;;14.21;24.23;60892.56;4854924;28;20038;-87
2021/12/30 05:09:21;;;;;;;0.65;0.22;;;;;;;-145.06;24.23;60892.56;4859234;28;20032;-87
2021/12/30 05:12:00;;;;;;;0.40;0.25;;;;;;;-145.06;24.23;60892.56;4857125;28;20032;-88
2021/12/30 05:14:39;;;;;;;0.83;0.30;;;;;;;-145.06;24.23;60892.56;4866880;28;20025;-88
2021/12/30 05:17:18;;;;;;;0.27;0.20;;;;;;;14.26;24.23;60892.56;4854746;28;20677;-87
2021/12/30 05:19:57;;;;;;;0.32;0.25;;;;;;;-145.06;24.23;60892.56;4858416;28;20497;-87
2021/12/30 05:22:36;;;;;;;0.38;0.20;;;;;;;-145.06;24.23;60892.56;4874125;28;20068;-88
2021/12/30 05:25:18;;;;;;;0.10;0.10;;;;;;;-145.06;24.23;60892.56;4873989;28;20759;-87
2021/12/30 05:27:58;;;;;;;0.20;0.20;;;;;;;-145.06;24.23;60892.56;4842181;28;20383;-87
2021/12/30 05:30:37;;;;;;;0.20;0.20;;;;;;;-145.06;24.23;60892.56;4873443;28;20028;-86
2021/12/30 05:33:16;;;;;;;0.25;0.20;;;;;;;-145.06;24.23;60892.56;4856062;28;20049;-88
2021/12/30 05:35:54;;;;;;;0.20;0.20;;;;;;;-145.06;24.23;60892.56;4859922;28;20127;-86
2021/12/30 05:38:34;;;;;;;0.20;0.20;;;;;;;14.44;24.23;60892.56;4852077;28;20906;-88
2021/12/30 05:41:13;;;;;;;0.20;0.20;;;;;;;14.42;24.23;60892.56;4864443;28;20037;-88
2021/12/30 05:43:52;;;;;;;0.30;0.30;;;;;;;-145.06;24.23;60892.56;4884659;28;20025;-88
2021/12/30 05:46:31;;;;;;;2.05;0.20;;;;;;;-145.06;24.23;60892.56;4863980;28;20615;-86
2021/12/30 05:49:10;;;;;;;0.20;0.20;;;;;;;187.52;24.23;60892.56;4867116;28;20033;-87
2021/12/30 05:51:49;;;;;;;0.22;0.20;;;;;;;-145.06;24.23;60892.56;4854437;28;20068;-87
2021/12/30 05:54:28;;;;;;;0.28;0.28;;;;;;;-145.06;24.23;60892.56;4856123;28;20029;-87
2021/12/30 05:57:08;;;;;;;0.52;0.20;;;;;;;14.54;24.23;60892.56;4852109;28;20040;-88
2021/12/30 05:59:48;;;;;;;0.20;0.20;;;;;;;-145.06;24.23;60892.56;4853102;28;20037;-88
2021/12/30 06:02:27;;;;;;;0.20;0.20;;;;;;;-145.06;24.23;60892.56;4864178;28;20370;-87
2021/12/30 06:05:06;;;;;;;0.37;0.20;;;;;;;-145.06;24.23;60892.56;4867020;28;20060;-87
2021/12/30 06:07:45;;;;;;;0.45;0.40;;;;;;;-145.06;24.23;60892.56;4872511;28;20037;-87
2021/12/30 06:10:24;;;;;;;0.30;0.30;;;;;;;-145.06;24.23;60892.56;4848035;28;20041;-88
2021/12/30 06:13:03;;;;;;;0.40;0.40;;;;;;;-145.06;24.23;60892.56;4868676;28;20064;-87
2021/12/30 06:15:42;;;;;;;0.30;0.30;;;;;;;14.65;24.23;60892.56;4857106;28;20391;-87
2021/12/30 06:18:21;;;;;;;0.20;0.20;;;;;;;-145.06;24.23;60892.56;4865911;28;20029;-87
2021/12/30 06:21:00;;;;;;;0.20;0.20;;;;;;;-145.06;24.23;60892.56;4870817;28;20037;-88
2021/12/30 06:23:39;;;;;;;0.30;0.30;;;;;;;-145.06;24.23;60892.56;4851350;28;20467;-87
2021/12/30 06:26:18;;;;;;;0.20;0.20;;;;;;;-145.06;24.23;60892.56;4851846;28;20264;-88
2021/12/30 06:28:57;;;;;;;1.50;0.40;;;;;;;-145.06;24.23;60892.56;4856713;28;20029;-88
2021/12/30 06:31:39;;;;;;;0.30;0.30;;;;;;;-145.06;24.23;60892.56;4849264;28;20042;-87
2021/12/30 06:34:18;;;;;;;0.40;0.40;;;;;;;187.52;24.23;60892.56;4867190;28;20056;-87
2021/12/30 06:36:59;;;;;;;1.02;0.47;;;;;;;-145.06;24.23;60892.56;4856616;28;20060;-87
2021/12/30 06:39:39;;;;;;;0.47;0.35;;;;;;;-145.06;24.23;60892.56;4848861;28;20045;-87
2021/12/30 06:42:18;;;;;;;0.43;0.40;;;;;;;-145.06;24.23;60892.56;4859570;28;20032;-88
2021/12/30 06:44:57;;;;;;;1.08;0.30;;;;;;;-145.06;24.23;60892.56;4852288;28;20447;-87
2021/12/30 06:47:44;;;;;;;0.50;0.50;;;;;;;-145.06;24.23;60892.56;4845929;28;20041;-88
2021/12/30 06:50:26;;;;;;;0.30;0.30;;;;;;;-145.06;24.23;60892.56;4854491;28;20059;-87
2021/12/30 06:53:05;;;;;;;0.63;0.60;;;;;;;-145.06;24.23;60892.56;4844738;28;20037;-88
2021/12/30 06:55:46;;;;;;;0.40;0.40;;;;;;;-145.06;24.23;60892.56;4865791;28;20363;-88
2021/12/30 06:58:25;;;;;;;0.70;0.40;;;;;;;-145.06;24.23;60892.56;4863456;28;20626;-87
2021/12/30 07:01:04;;;;;;;0.40;0.35;;;;;;;-145.06;24.23;60892.56;4861317;28;20470;-87
2021/12/30 07:03:43;;;;;;;0.40;0.40;;;;;;;-145.06;24.23;60892.56;4843469;28;20041;-88
2021/12/30 07:06:22;;;;;;;0.67;0.40;;;;;;;-145.06;24.23;60892.56;4851104;28;20662;-87
2021/12/30 07:09:01;;;;;;;0.50;0.50;;;;;;;-145.06;24.23;60892.56;4856078;28;20040;-87
2021/12/30 07:11:40;;;;;;;0.30;0.30;;;;;;;-145.06;24.23;60892.56;4871833;28;20044;-87
2021/12/30 07:14:20;;;;;;;0.50;0.50;;;;;;;-145.06;24.23;60892.56;4868409;28;20060;-87
2021/12/30 07:16:59;;;;;;;0.68;0.40;;;;;;;-145.06;24.23;60892.56;4850466;28;20037;-87
2021/12/30 07:19:39;;;;;;;0.40;0.40;;;;;;;-145.06;24.23;60892.56;4854218;28;20029;-87
2021/12/30 07:22:17;;;;;;;0.30;0.30;;;;;;;-145.06;24.23;60892.56;4847504;28;20041;-87
2021/12/30 07:24:56;;;;;;;0.70;0.60;;;;;;;-145.06;24.23;60892.56;4869283;28;20474;-87
2021/12/30 07:27:35;;;;;;;0.40;0.35;;;;;;;-145.06;24.23;60892.56;4866794;28;20037;-87
2021/12/30 07:30:16;;;;;;;0.47;0.40;;;;;;;-145.06;24.23;60892.56;4850408;28;20024;-88
2021/12/30 07:32:54;;;;;;;0.40;0.40;;;;;;;-145.06;24.23;60892.56;4864039;28;20029;-88
2021/12/30 07:35:35;;;;;;;0.38;0.30;;;;;;;-145.06;24.23;60892.56;4854260;28;20542;-88
2021/12/30 07:38:14;;;;;;;0.30;0.30;;;;;;;-145.06;24.23;60892.56;4852459;28;20036;-89
2021/12/30 07:40:53;;;;;;;0.35;0.35;;;;;;;-145.06;24.23;60892.56;4872030;28;20423;-87
2021/12/30 07:43:32;;;;;;;0.30;0.30;;;;;;;-145.06;24.23;60892.56;4859384;28;20045;-87
2021/12/30 07:46:12;;;;;;;0.32;0.30;;;;;;;-145.06;24.23;60892.56;4860393;28;20025;-89
2021/12/30 07:48:51;;;;;;;0.30;0.30;;;;;;;-145.06;24.23;60892.56;4868437;28;20033;-89
2021/12/30 07:51:30;;;;;;;0.35;0.30;;;;;;;-145.06;24.23;60892.56;4850697;28;20033;-88
2021/12/30 07:54:09;;;;;;;0.30;0.30;;;;;;;-145.06;24.23;60892.56;4849378;28;20037;-87
2021/12/30 07:56:48;;;;;;;0.30;0.20;;;;;;;-145.06;24.23;60892.56;4872623;28;20362;-88
2021/12/30 07:59:27;;;;;;;0.30;0.30;;;;;;;15.88;24.23;60892.56;4854931;28;20037;-89
2021/12/30 08:02:06;;;;;;;0.28;0.28;;;;;;;-145.06;24.23;60892.56;4853622;28;20697;-90
2021/12/30 08:04:45;;;;;;;0.30;0.30;;;;;;;15.15;24.23;60892.56;4856142;28;20038;-88
2021/12/30 08:07:25;;;;;;;0.40;0.32;;;;;;;-145.06;24.23;60892.56;4860912;28;20037;-89
2021/12/30 08:10:10;;;;;;;0.28;0.28;;;;;;;-145.06;24.23;60892.56;4866597;28;20036;-88
2021/12/30 08:12:52;;;;;;;0.40;0.20;;;;;;;-145.06;24.23;60892.56;4861881;28;20040;-89
2021/12/30 08:15:31;;;;;;;0.28;0.28;;;;;;;-145.06;24.23;60892.56;4872423;28;20037;-89
2021/12/30 08:18:10;;;;;;;0.82;0.43;;;;;;;-145.06;24.23;60892.56;4872954;28;20040;-89
2021/12/30 08:20:49;;;;;;;0.47;0.32;;;;;;;-145.06;24.23;60892.56;4863353;28;20033;-89
2021/12/30 08:23:28;;;;;;;0.40;0.40;;;;;;;-145.06;24.23;60892.56;4860219;28;20036;-89
2021/12/30 08:26:10;;;;;;;0.65;0.40;;;;;;;-145.06;24.23;60892.56;4859384;28;20068;-88
2021/12/30 08:28:49;;;;;;;0.30;0.30;;;;;;;-145.06;24.23;60892.56;4859897;28;20112;-88
2021/12/30 08:31:28;;;;;;;0.40;0.40;;;;;;;-145.06;24.23;60892.56;4855553;28;20104;-88
2021/12/30 08:34:08;;;;;;;0.30;0.30;;;;;;;-145.06;24.23;60892.56;4853651;28;20029;-88
2021/12/30 08:36:46;;;;;;;;;;;;;;;-145.06;24.23;60892.56;4861009;28;20033;-88
2021/12/30 08:39:26;;;;;;;0.43;0.30;;;;;;;-145.06;24.23;60892.56;4874116;28;19913;-89
2021/12/30 08:42:05;;;;;;;0.30;0.30;;;;;;;15.88;24.23;60892.56;4848848;28;20260;-87
2021/12/30 08:44:45;;;;;;;0.30;0.30;;;;;;;-145.06;24.23;60892.56;4857914;28;20623;-88
2021/12/30 08:47:26;;;;;;;0.20;0.20;;;;;;;-145.06;24.23;60892.56;4859980;28;20037;-88
2021/12/30 08:50:08;;;;;;;0.40;0.30;;;;;;;-145.06;24.23;60892.56;4858638;28;20025;-88
2021/12/30 08:52:48;;;;;;;0.20;0.20;;;;;;;-145.06;24.23;60892.56;4858949;28;20036;-88
2021/12/30 08:55:27;;;;;;;0.63;0.30;;;;;;;15.30;24.23;60892.56;4870900;28;20041;-88
2021/12/30 08:58:06;;;;;;;0.40;0.40;;;;;;;-145.06;24.23;60892.56;4847127;28;20029;-89
2021/12/30 09:01:06;;;;;;;0.30;0.30;;;;;;;15.33;24.23;60892.56;4856095;28;20033;-87
2021/12/30 09:03:45;;;;;;;;;;;;;;;-145.06;24.23;60892.56;4873106;28;20033;-89
2021/12/30 09:06:24;;;;;;;0.30;0.30;;;;;;;15.32;24.23;60892.56;4876928;28;19916;-87
2021/12/30 09:09:03;;;;;;;0.70;0.30;;;;;;;-145.06;24.23;60892.56;4853064;28;20029;-87
2021/12/30 09:11:43;;;;;;;0.47;0.30;;;;;;;-145.06;24.23;60892.56;4870539;28;20048;-88
2021/12/30 09:14:22;;;;;;;0.30;0.30;;;;;;;-145.06;24.23;60892.56;4854167;28;20033;-88
2021/12/30 09:17:01;;;;;;;0.73;0.40;;;;;;;-145.06;24.23;60892.56;4856767;28;20029;-88
2021/12/30 09:19:40;;;;;;;0.22;0.22;;;;;;;-145.06;24.23;60892.56;4851389;28;20033;-89
2021/12/30 09:22:19;;;;;;;0.25;0.25;;;;;;;-145.06;24.23;60892.56;4856995;28;20037;-88
2021/12/30 09:24:58;;;;;;;0.33;0.23;;;;;;;-145.06;24.23;60892.56;4869062;28;20037;-87
2021/12/30 09:27:40;;;;;;;0.30;0.30;;;;;;;-145.06;24.23;60892.56;4871936;28;20029;-87
2021/12/30 09:30:20;;;;;;;0.30;0.25;;;;;;;-145.06;24.23;60892.56;4863615;28;20041;-87
2021/12/30 09:33:01;;;;;;;0.30;0.30;;;;;;;-145.06;24.23;60892.56;4857583;28;20033;-88
2021/12/30 09:35:47;;;;;;;0.20;0.20;;;;;;;-145.06;24.23;60892.56;4877366;28;20037;-87
2021/12/30 09:38:26;;;;;;;0.20;0.20;;;;;;;-145.06;24.23;60892.56;4859762;28;20032;-86
2021/12/30 09:41:05;;;;;;;0.20;0.20;;;;;;;-145.06;24.23;60892.56;4866884;28;20033;-88
2021/12/30 09:43:44;;;;;;;0.22;0.22;;;;;;;-145.06;24.23;60892.56;4852975;28;20358;-87
2021/12/30 09:46:23;;;;;;;0.20;0.20;;;;;;;-145.06;24.23;60892.56;4856391;28;20041;-87
2021/12/30 09:49:05;;;;;;;0.45;0.30;;;;;;;-145.06;24.23;60892.56;4855418;28;20264;-88
2021/12/30 09:51:44;;;;;;;0.30;0.28;;;;;;;-145.06;24.23;60892.56;4858603;28;20037;-87
2021/12/30 09:54:24;;;;;;;0.20;0.20;;;;;;;-145.06;24.23;60892.56;4859717;28;20036;-88
2021/12/30 09:57:04;;;;;;;0.20;0.20;;;;;;;-145.06;24.23;60892.56;4854902;28;20033;-86
2021/12/30 09:59:42;;;;;;;0.30;0.30;;;;;;;-145.06;24.23;60892.56;4874077;28;20048;-86
2021/12/30 10:02:21;;;;;;;0.60;0.40;;;;;;;-145.06;24.23;60892.56;4868497;28;20071;-88
2021/12/30 10:05:13;;;;;;;0.35;0.30;;;;;;;-145.06;24.23;60892.56;4859914;28;20037;-88
2021/12/30 10:08:13;;;;;;;0.30;0.30;;;;;;;-145.06;24.23;60892.56;4875008;28;20041;-88
2021/12/30 10:10:58;;;;;;;0.30;0.30;;;;;;;-145.06;24.23;60892.56;4854153;28;20041;-87
2021/12/30 10:13:39;;;;;;;0.60;0.30;;;;;;;-145.06;24.23;60892.56;4854603;28;20033;-89
2021/12/30 10:16:19;;;;;;;0.20;0.20;;;;;;;-145.06;24.23;60892.56;4858454;28;20036;-87
2021/12/30 10:19:06;;;;;;;0.20;0.20;;;;;;;15.49;24.23;60892.56;4855155;28;20478;-87
2021/12/30 10:21:48;;;;;;;0.20;0.20;;;;;;;-145.06;24.23;60892.56;4868745;28;20025;-88
2021/12/30 10:24:35;;;;;;;0.85;0.40;;;;;;;-145.06;24.23;60892.56;4857829;28;20140;-87
2021/12/30 10:27:33;;;;;;;0.30;0.30;;;;;;;-145.06;24.23;60892.56;4849246;28;20037;-88
2021/12/30 10:30:12;;;;;;;0.88;0.40;;;;;;;-145.06;24.23;60892.56;4866696;28;20502;-86
2021/12/30 10:32:51;;;;;;;1.00;0.40;;;;;;;-145.06;24.23;60892.56;4857933;28;20033;-87
2021/12/30 10:35:34;;;;;;;0.60;0.60;;;;;;;-145.06;24.23;60892.56;4854498;28;20295;-88
2021/12/30 10:38:14;;;;;;;1.52;0.60;;;;;;;-145.06;24.23;60892.56;4859059;28;20037;-88
2021/12/30 10:40:53;;;;;;;;;;;;;;;-145.06;24.23;60892.56;4849445;28;20033;-88
2021/12/30 10:43:46;;;;;;;1.23;0.40;;;;;;;-145.06;24.23;60892.56;4852380;28;19913;-88
2021/12/30 10:46:26;;;;;;;1.00;0.50;;;;;;;-145.06;24.23;60892.56;4843793;28;20264;-88
2021/12/30 10:49:20;;;;;;;0.75;0.50;;;;;;;-145.06;24.23;60892.56;4844529;28;20034;-88
2021/12/30 10:52:05;;;;;;;1.60;0.50;;;;;;;-145.06;24.23;60892.56;4875265;28;20041;-87
2021/12/30 10:54:49;;;;;;;1.65;0.82;;;;;;;-145.06;24.23;60892.56;4876678;28;20037;-87
2021/12/30 10:57:30;;;;;;;0.63;0.35;;;;;;;15.77;24.23;60892.56;4877793;28;20473;-89
2021/12/30 11:00:10;;;;;;;0.63;0.47;;;;;;;-145.06;24.23;60892.56;4877529;28;20029;-88
2021/12/30 11:02:49;;;;;;;0.60;0.60;;;;;;;-145.06;24.23;60892.56;4872747;28;20033;-87
2021/12/30 11:05:28;;;;;;;0.45;0.43;;;;;;;-145.06;24.23;60892.56;4859344;28;20033;-89
2021/12/30 11:08:07;;;;;;;0.40;0.40;;;;;;;-145.06;24.23;60892.56;4843391;28;20029;-88
2021/12/30 11:10:46;;;;;;;0.70;0.50;;;;;;;-145.06;24.23;60892.56;4855339;28;20119;-89
2021/12/30 11:13:25;;;;;;;0.90;0.50;;;;;;;-145.06;24.23;60892.56;4871217;28;20032;-88
2021/12/30 11:16:04;;;;;;;1.43;0.77;;;;;;;-145.06;24.23;60892.56;4862059;28;20021;-88
2021/12/30 11:18:44;;;;;;;0.88;0.60;;;;;;;-145.06;24.23;60892.56;4853264;28;20741;-88
2021/12/30 11:21:41;;;;;;;1.25;0.60;;;;;;;-145.06;24.23;60892.56;4860366;28;20041;-88
2021/12/30 11:24:20;;;;;;;0.93;0.60;;;;;;;-145.06;24.23;60892.56;4871718;28;20037;-88
2021/12/30 11:27:00;;;;;;;0.93;0.60;;;;;;;15.91;24.23;60892.56;4872357;28;20371;-88
2021/12/30 11:29:43;;;;;;;0.88;0.47;;;;;;;15.90;24.23;60892.56;4845841;28;20040;-90
2021/12/30 11:32:26;;;;;;;0.40;0.40;;;;;;;-145.06;24.23;60892.56;4875241;28;20037;-88
2021/12/30 11:35:07;;;;;;;0.57;0.50;;;;;;;-145.06;24.23;60892.56;4870620;28;20033;-89
2021/12/30 11:37:46;;;;;;;0.60;0.50;;;;;;;-145.06;24.23;60892.56;4861903;28;20056;-89
2021/12/30 11:40:26;;;;;;;1.00;0.63;;;;;;;-145.06;24.23;60892.56;4860553;28;20382;-87
2021/12/30 11:43:12;;;;;;;0.60;0.55;;;;;;;-145.06;24.23;60892.56;4857851;28;20033;-89
2021/12/30 11:45:51;;;;;;;1.17;0.45;;;;;;;-145.06;24.23;60892.56;4875385;28;20025;-89
2021/12/30 11:48:32;;;;;;;0.68;0.57;;;;;;;-145.06;24.23;60892.56;4855682;28;20367;-89
2021/12/30 11:51:15;;;;;;;0.43;0.40;;;;;;;-145.06;24.23;60892.56;4869859;28;20060;-89
2021/12/30 11:53:54;;;;;;;1.08;0.70;;;;;;;16.08;24.23;60892.56;4856896;28;20029;-89
2021/12/30 11:56:33;;;;;;;1.33;0.60;;;;;;;-145.06;24.23;60892.56;4854754;28;20033;-88
2021/12/30 11:59:12;;;;;;;1.45;0.60;;;;;;;-145.06;24.23;60892.56;4856499;28;20375;-88
2021/12/30 12:01:51;;;;;;;1.00;0.60;;;;;;;-145.06;24.23;60892.56;4855043;28;20033;-89
2021/12/30 12:04:30;;;;;;;1.70;0.63;;;;;;;-145.06;24.23;60892.56;4863083;28;20029;-88
2021/12/30 12:07:09;;;;;;;1.13;0.57;;;;;;;-145.06;24.23;60892.56;4855426;28;20032;-89
2021/12/30 12:09:48;;;;;;;0.95;0.70;;;;;;;-145.06;24.23;60892.56;4849278;28;20045;-88
2021/12/30 12:12:33;;;;;;;2.33;0.80;;;;;;;-145.06;24.23;60892.56;4845043;28;20147;-89
2021/12/30 12:15:12;;;;;;;1.23;0.68;;;;;;;-145.06;24.23;60892.56;4861159;28;20037;-89
2021/12/30 12:17:51;;;;;;;0.95;0.50;;;;;;;-145.06;24.23;60892.56;4848092;28;20757;-87
2021/12/30 12:20:34;;;;;;;0.52;0.50;;;;;;;-145.06;24.23;60892.56;4846726;28;20064;-88